Terminal Aerodrome Forecast
Issued by NWS

Home | Current Version | Previous Version | Text Only | Print | Product List | Glossary On
Versions: 1 2 3 4 5 6 7 8 9 10 11 12
000
FTUS43 KIND 260524
TAFHUF
TAF
KHUF 260524Z 2606/2706 18007KT P6SM BKN015 BKN100
     FM260900 20004KT 4SM BR BKN015 BKN080
     FM261330 21008KT P6SM SCT025 BKN080
     FM261900 20009KT P6SM BKN040=

USA.gov is the U.S. government's official web portal to all federal, state and local government web resources and services.